Map

Track Data

SID SEASON NUMBER BASIN SUBBASIN NAME ISO_TIME NATURE LAT LON WMO_WIND WMO_PRES WMO_AGENCY TRACK_TYPE DIST2LAND LANDFALL IFLAG USA_AGENCY USA_ATCF_ID USA_LAT USA_LON USA_RECORD USA_STATUS USA_WIND USA_PRES USA_SSHS USA_R34_NE USA_R34_SE USA_R34_SW USA_R34_NW USA_R50_NE USA_R50_SE USA_R50_SW USA_R50_NW USA_R64_NE USA_R64_SE USA_R64_SW USA_R64_NW USA_POCI USA_ROCI USA_RMW USA_EYE TOKYO_LAT TOKYO_LON TOKYO_GRADE TOKYO_WIND TOKYO_PRES TOKYO_R50_DIR TOKYO_R50_LONG TOKYO_R50_SHORT TOKYO_R30_DIR TOKYO_R30_LONG TOKYO_R30_SHORT TOKYO_LAND CMA_LAT CMA_LON CMA_CAT CMA_WIND CMA_PRES HKO_LAT HKO_LON HKO_CAT HKO_WIND HKO_PRES NEWDELHI_LAT NEWDELHI_LON NEWDELHI_GRADE NEWDELHI_WIND NEWDELHI_PRES NEWDELHI_CI NEWDELHI_DP NEWDELHI_POCI REUNION_LAT REUNION_LON REUNION_TYPE REUNION_WIND REUNION_PRES REUNION_TNUM REUNION_CI REUNION_RMW REUNION_R34_NE REUNION_R34_SE REUNION_R34_SW REUNION_R34_NW REUNION_R50_NE REUNION_R50_SE REUNION_R50_SW REUNION_R50_NW REUNION_R64_NE REUNION_R64_SE REUNION_R64_SW REUNION_R64_NW BOM_LAT BOM_LON BOM_TYPE BOM_WIND BOM_PRES BOM_TNUM BOM_CI BOM_RMW BOM_R34_NE BOM_R34_SE BOM_R34_SW BOM_R34_NW BOM_R50_NE BOM_R50_SE BOM_R50_SW BOM_R50_NW BOM_R64_NE BOM_R64_SE BOM_R64_SW BOM_R64_NW BOM_ROCI BOM_POCI BOM_EYE BOM_POS_METHOD BOM_PRES_METHOD NADI_LAT NADI_LON NADI_CAT NADI_WIND NADI_PRES WELLINGTON_LAT WELLINGTON_LON WELLINGTON_WIND WELLINGTON_PRES DS824_LAT DS824_LON DS824_STAGE DS824_WIND DS824_PRES TD9636_LAT TD9636_LON TD9636_STAGE TD9636_WIND TD9636_PRES TD9635_LAT TD9635_LON TD9635_WIND TD9635_PRES TD9635_ROCI NEUMANN_LAT NEUMANN_LON NEUMANN_CLASS NEUMANN_WIND NEUMANN_PRES MLC_LAT MLC_LON MLC_CLASS MLC_WIND MLC_PRES USA_GUST BOM_GUST BOM_GUST_PER REUNION_GUST REUNION_GUST_PER USA_SEAHGT USA_SEARAD_NE USA_SEARAD_SE USA_SEARAD_SW USA_SEARAD_NW STORM_SPEED STORM_DIR
1971047S15088 1971 23 SI MM KALINKA 1971-02-16 06:00:00 TS -15.0000 88.0000 spur-merge 1911 1911 _____O______O_ -1 -15.0000 88.0000 2 9.90000 -15.0000 88.0000 TC 25 8 279
1971047S15088 1971 23 SI MM KALINKA 1971-02-16 09:00:00 TS -14.9401 87.6099 spur-merge 1930 1930 _____P______P_ -1 -14.9401 87.6099 2 -14.9401 87.6099 TC 27 8 277
1971047S15088 1971 23 SI MM KALINKA 1971-02-16 12:00:00 TS -14.9000 87.2000 spur-merge 1959 1959 _____O______O_ -1 -14.9000 87.2000 99 9.90000 -14.9000 87.2000 TC 30 8 273
1971047S15088 1971 23 SI MM KALINKA 1971-02-16 15:00:00 TS -14.8925 86.7575 spur-merge 1988 1988 _____P______P_ -1 -14.8925 86.7575 99 -14.8925 86.7575 TC 30 9 270
1971047S15088 1971 23 SI MM KALINKA 1971-02-16 18:00:00 TS -14.9000 86.3000 spur-merge 2025 2025 _____O______O_ -1 -14.9000 86.3000 99 9.90000 -14.9000 86.3000 TC 30 9 270
1971047S15088 1971 23 SI MM KALINKA 1971-02-16 21:00:00 TS -14.8925 85.8425 spur-merge 2063 2063 _____P______P_ -1 -14.8925 85.8425 99 -14.8925 85.8425 TC 30 9 270
1971047S15088 1971 23 SI MM KALINKA 1971-02-17 00:00:00 TS -14.9000 85.4000 spur-merge 2094 2094 _____O______O_ -1 -14.9000 85.4000 99 9.90000 -14.9000 85.4000 TC 30 8 267
1971047S15088 1971 23 SI MM KALINKA 1971-02-17 03:00:00 TS -14.9346 85.0374 spur-merge 2125 2125 _____P______P_ -1 -14.9346 85.0374 99 -14.9346 85.0374 TC 32 8 263
1971047S15088 1971 23 SI MM KALINKA 1971-02-17 06:00:00 TS -15.0000 84.6000 spur-merge 2164 2164 _____O______O_ -1 -15.0000 84.6000 3 9.90000 -15.0000 84.6000 TC 35 11 263
1971047S15088 1971 23 SI MM KALINKA 1971-02-17 09:00:00 TS -15.0628 83.9298 spur-merge 2228 2228 _____P______P_ -1 -15.0628 83.9298 3 -15.0628 83.9298 TC 35 14 262
1971047S15088 1971 23 SI MM KALINKA 1971-02-17 12:00:00 TS -15.2000 83.2000 spur-merge 2293 2293 _____O______O_ -1 -15.2000 83.2000 99 9.90000 -15.2000 83.2000 TC 35 13 252
1971047S15088 1971 23 SI MM KALINKA 1971-02-17 15:00:00 TS -15.4845 82.6076 spur-merge 2364 2364 _____P______P_ -1 -15.4845 82.6076 99 -15.4845 82.6076 TC 37 13 243
1971047S15088 1971 23 SI MM KALINKA 1971-02-17 18:00:00 TS -15.8000 82.0000 spur-merge 2435 2434 _____O______O_ -1 -15.8000 82.0000 99 9.90000 -15.8000 82.0000 TC 40 14 249
1971047S15088 1971 23 SI MM KALINKA 1971-02-17 21:00:00 TS -15.9850 81.2719 spur-merge 2454 2438 _____P______P_ -1 -15.9850 81.2719 99 -15.9850 81.2719 TC 42 15 254
1971047S15088 1971 23 SI MM KALINKA 1971-02-18 00:00:00 TS -16.2000 80.5000 spur-merge 2438 2345 _____O______O_ -1 -16.2000 80.5000 99 9.90000 -16.2000 80.5000 TC 45 16 247
1971047S15088 1971 23 SI MM KALINKA 1971-02-18 03:00:00 TS -16.6151 79.7057 spur-merge 2345 2262 _____P______P_ -1 -16.6151 79.7057 99 -16.6151 79.7057 TC 47 16 241
1971047S15088 1971 23 SI MM KALINKA 1971-02-18 06:00:00 TS -17.0000 79.0000 reunion spur-merge 2262 2207 _____O______O_ -1 -17.0000 79.0000 3 9.90000 -17.0000 79.0000 TC 50 13 246
1971047S15088 1971 23 SI MM KALINKA 1971-02-18 09:00:00 TS -17.1221 78.4968 spur-merge 2207 2164 _____P______P_ -1 -17.1699 78.4895 3 -17.1699 78.4895 TC 52 9 257
1971047S15088 1971 23 SI MM KALINKA 1971-02-18 12:00:00 TS -17.2000 78.1000 reunion spur-merge 2164 2117 _____O______O_ -1 -17.2000 78.1000 99 9.90000 -17.2000 78.1000 TC 55 8 247
1971047S15088 1971 23 SI MM KALINKA 1971-02-18 15:00:00 TS -17.4500 77.6777 spur-merge 2117 ______________ -1 99 TC 10 238

About IBTrACS Database

This database is a web-friendly format of International Best Track Archive for Climate Stewardship (IBTrACS), a global best track data archive curated by NOAA dating back to 1842.

Updated: 2021-12-08